sensor_id;sensor_type;location;lat;lon;timestamp;P1;durP1;ratioP1;P2;durP2;ratioP2
19903;SDS011;10114;50.970;4.962;2022-11-12T00:01:24;14.20;;;6.57;;
19903;SDS011;10114;50.970;4.962;2022-11-12T00:03:50;14.05;;;7.45;;
19903;SDS011;10114;50.970;4.962;2022-11-12T00:06:16;13.38;;;6.43;;
19903;SDS011;10114;50.970;4.962;2022-11-12T00:08:42;13.80;;;7.18;;
19903;SDS011;10114;50.970;4.962;2022-11-12T00:11:08;11.43;;;6.68;;
19903;SDS011;10114;50.970;4.962;2022-11-12T00:13:34;17.52;;;7.78;;
19903;SDS011;10114;50.970;4.962;2022-11-12T00:16:00;14.68;;;7.00;;
19903;SDS011;10114;50.970;4.962;2022-11-12T00:18:26;15.38;;;7.10;;
19903;SDS011;10114;50.970;4.962;2022-11-12T00:20:52;15.13;;;7.30;;
19903;SDS011;10114;50.970;4.962;2022-11-12T00:23:18;19.35;;;7.53;;
19903;SDS011;10114;50.970;4.962;2022-11-12T00:25:44;15.52;;;7.68;;
19903;SDS011;10114;50.970;4.962;2022-11-12T00:28:10;21.50;;;8.05;;
19903;SDS011;10114;50.970;4.962;2022-11-12T00:30:37;12.52;;;7.07;;
19903;SDS011;10114;50.970;4.962;2022-11-12T00:33:03;15.50;;;7.72;;
19903;SDS011;10114;50.970;4.962;2022-11-12T00:35:30;14.48;;;7.60;;
19903;SDS011;10114;50.970;4.962;2022-11-12T00:37:56;15.45;;;8.38;;
19903;SDS011;10114;50.970;4.962;2022-11-12T00:40:23;14.10;;;7.13;;
19903;SDS011;10114;50.970;4.962;2022-11-12T00:42:52;16.90;;;7.70;;
19903;SDS011;10114;50.970;4.962;2022-11-12T00:45:19;15.45;;;7.97;;
19903;SDS011;10114;50.970;4.962;2022-11-12T00:47:45;17.10;;;8.32;;
19903;SDS011;10114;50.970;4.962;2022-11-12T00:50:11;20.33;;;9.18;;
19903;SDS011;10114;50.970;4.962;2022-11-12T00:52:37;13.90;;;8.10;;
19903;SDS011;10114;50.970;4.962;2022-11-12T00:55:03;17.02;;;8.25;;
19903;SDS011;10114;50.970;4.962;2022-11-12T00:57:29;19.05;;;9.40;;
19903;SDS011;10114;50.970;4.962;2022-11-12T00:59:55;18.88;;;9.15;;
19903;SDS011;10114;50.970;4.962;2022-11-12T01:02:21;18.33;;;8.93;;
19903;SDS011;10114;50.970;4.962;2022-11-12T01:04:47;16.80;;;8.82;;
19903;SDS011;10114;50.970;4.962;2022-11-12T01:07:13;17.00;;;8.48;;
19903;SDS011;10114;50.970;4.962;2022-11-12T01:09:42;20.35;;;9.73;;
19903;SDS011;10114;50.970;4.962;2022-11-12T01:12:08;19.35;;;8.65;;
19903;SDS011;10114;50.970;4.962;2022-11-12T01:14:34;21.67;;;9.38;;
19903;SDS011;10114;50.970;4.962;2022-11-12T01:17:00;20.30;;;8.68;;
19903;SDS011;10114;50.970;4.962;2022-11-12T01:19:26;18.98;;;10.00;;
19903;SDS011;10114;50.970;4.962;2022-11-12T01:21:52;20.58;;;9.50;;
19903;SDS011;10114;50.970;4.962;2022-11-12T01:24:18;17.55;;;9.13;;
19903;SDS011;10114;50.970;4.962;2022-11-12T01:26:44;16.75;;;9.10;;
19903;SDS011;10114;50.970;4.962;2022-11-12T01:29:10;17.58;;;10.13;;
19903;SDS011;10114;50.970;4.962;2022-11-12T01:31:37;17.30;;;10.20;;
19903;SDS011;10114;50.970;4.962;2022-11-12T01:34:04;18.13;;;10.07;;
19903;SDS011;10114;50.970;4.962;2022-11-12T01:36:32;19.65;;;9.23;;
19903;SDS011;10114;50.970;4.962;2022-11-12T01:38:58;19.08;;;9.95;;
19903;SDS011;10114;50.970;4.962;2022-11-12T01:41:26;20.80;;;9.82;;
19903;SDS011;10114;50.970;4.962;2022-11-12T01:46:40;17.98;;;8.82;;
19903;SDS011;10114;50.970;4.962;2022-11-12T01:49:08;18.98;;;9.13;;
19903;SDS011;10114;50.970;4.962;2022-11-12T01:51:38;17.02;;;9.02;;
19903;SDS011;10114;50.970;4.962;2022-11-12T01:54:06;18.15;;;9.57;;
19903;SDS011;10114;50.970;4.962;2022-11-12T01:56:33;17.75;;;8.57;;
19903;SDS011;10114;50.970;4.962;2022-11-12T01:59:05;15.45;;;8.90;;
19903;SDS011;10114;50.970;4.962;2022-11-12T02:01:34;26.55;;;10.07;;
19903;SDS011;10114;50.970;4.962;2022-11-12T02:04:00;19.45;;;8.68;;
19903;SDS011;10114;50.970;4.962;2022-11-12T02:06:26;16.75;;;8.85;;
19903;SDS011;10114;50.970;4.962;2022-11-12T02:08:52;22.27;;;10.18;;
19903;SDS011;10114;50.970;4.962;2022-11-12T02:11:19;17.15;;;9.63;;
19903;SDS011;10114;50.970;4.962;2022-11-12T02:13:47;19.90;;;9.75;;
19903;SDS011;10114;50.970;4.962;2022-11-12T02:16:33;18.30;;;8.90;;
19903;SDS011;10114;50.970;4.962;2022-11-12T02:19:00;18.40;;;9.50;;
19903;SDS011;10114;50.970;4.962;2022-11-12T02:21:27;21.17;;;10.35;;
19903;SDS011;10114;50.970;4.962;2022-11-12T02:23:57;18.33;;;10.18;;
19903;SDS011;10114;50.970;4.962;2022-11-12T02:26:23;18.92;;;9.27;;
19903;SDS011;10114;50.970;4.962;2022-11-12T02:28:50;18.35;;;9.65;;
19903;SDS011;10114;50.970;4.962;2022-11-12T02:31:16;14.68;;;9.00;;
19903;SDS011;10114;50.970;4.962;2022-11-12T02:33:42;20.40;;;9.55;;
19903;SDS011;10114;50.970;4.962;2022-11-12T02:36:08;18.65;;;9.18;;
19903;SDS011;10114;50.970;4.962;2022-11-12T02:38:34;20.95;;;9.02;;
19903;SDS011;10114;50.970;4.962;2022-11-12T02:41:00;18.98;;;9.57;;
19903;SDS011;10114;50.970;4.962;2022-11-12T02:43:26;16.60;;;8.95;;
19903;SDS011;10114;50.970;4.962;2022-11-12T02:45:52;19.58;;;9.32;;
19903;SDS011;10114;50.970;4.962;2022-11-12T02:48:18;19.33;;;9.23;;
19903;SDS011;10114;50.970;4.962;2022-11-12T02:50:45;16.83;;;9.30;;
19903;SDS011;10114;50.970;4.962;2022-11-12T02:53:11;16.48;;;8.48;;
19903;SDS011;10114;50.970;4.962;2022-11-12T02:55:37;17.67;;;9.05;;
19903;SDS011;10114;50.970;4.962;2022-11-12T02:58:03;16.35;;;8.93;;
19903;SDS011;10114;50.970;4.962;2022-11-12T03:00:29;16.98;;;9.23;;
19903;SDS011;10114;50.970;4.962;2022-11-12T03:02:55;17.58;;;8.38;;
19903;SDS011;10114;50.970;4.962;2022-11-12T03:05:25;15.68;;;8.27;;
19903;SDS011;10114;50.970;4.962;2022-11-12T03:07:55;16.98;;;8.18;;
19903;SDS011;10114;50.970;4.962;2022-11-12T03:10:21;15.82;;;8.15;;
19903;SDS011;10114;50.970;4.962;2022-11-12T03:12:47;18.17;;;8.40;;
19903;SDS011;10114;50.970;4.962;2022-11-12T03:15:13;16.60;;;8.27;;
19903;SDS011;10114;50.970;4.962;2022-11-12T03:17:41;15.68;;;8.35;;
19903;SDS011;10114;50.970;4.962;2022-11-12T03:20:08;19.15;;;8.30;;
19903;SDS011;10114;50.970;4.962;2022-11-12T03:22:34;13.85;;;7.03;;
19903;SDS011;10114;50.970;4.962;2022-11-12T03:25:00;15.13;;;8.27;;
19903;SDS011;10114;50.970;4.962;2022-11-12T03:27:26;20.42;;;8.55;;
19903;SDS011;10114;50.970;4.962;2022-11-12T03:29:52;14.68;;;8.65;;
19903;SDS011;10114;50.970;4.962;2022-11-12T03:32:18;16.98;;;9.23;;
19903;SDS011;10114;50.970;4.962;2022-11-12T03:34:44;14.85;;;7.88;;
19903;SDS011;10114;50.970;4.962;2022-11-12T03:37:10;15.55;;;7.80;;
19903;SDS011;10114;50.970;4.962;2022-11-12T03:39:36;19.27;;;8.60;;
19903;SDS011;10114;50.970;4.962;2022-11-12T03:42:02;13.35;;;7.55;;
19903;SDS011;10114;50.970;4.962;2022-11-12T03:44:28;17.25;;;8.57;;
19903;SDS011;10114;50.970;4.962;2022-11-12T03:46:54;17.48;;;8.57;;
19903;SDS011;10114;50.970;4.962;2022-11-12T03:49:20;16.75;;;8.43;;
19903;SDS011;10114;50.970;4.962;2022-11-12T03:51:46;14.68;;;7.30;;
19903;SDS011;10114;50.970;4.962;2022-11-12T03:54:12;14.18;;;7.43;;
19903;SDS011;10114;50.970;4.962;2022-11-12T03:56:38;14.52;;;7.70;;
19903;SDS011;10114;50.970;4.962;2022-11-12T03:59:04;14.70;;;7.50;;
19903;SDS011;10114;50.970;4.962;2022-11-12T04:01:30;14.93;;;6.68;;
19903;SDS011;10114;50.970;4.962;2022-11-12T04:03:57;15.25;;;7.00;;
19903;SDS011;10114;50.970;4.962;2022-11-12T04:06:23;14.20;;;7.05;;
19903;SDS011;10114;50.970;4.962;2022-11-12T04:09:07;14.57;;;6.63;;
19903;SDS011;10114;50.970;4.962;2022-11-12T04:11:34;15.38;;;7.35;;
19903;SDS011;10114;50.970;4.962;2022-11-12T04:14:00;14.68;;;7.20;;
19903;SDS011;10114;50.970;4.962;2022-11-12T04:16:26;12.05;;;6.43;;
19903;SDS011;10114;50.970;4.962;2022-11-12T04:19:11;13.60;;;7.00;;
19903;SDS011;10114;50.970;4.962;2022-11-12T04:22:09;13.13;;;6.65;;
19903;SDS011;10114;50.970;4.962;2022-11-12T04:24:36;12.85;;;6.25;;
19903;SDS011;10114;50.970;4.962;2022-11-12T04:27:25;14.85;;;7.00;;
19903;SDS011;10114;50.970;4.962;2022-11-12T04:29:51;13.88;;;7.07;;
19903;SDS011;10114;50.970;4.962;2022-11-12T04:32:37;13.35;;;6.43;;
19903;SDS011;10114;50.970;4.962;2022-11-12T04:35:04;17.05;;;7.35;;
19903;SDS011;10114;50.970;4.962;2022-11-12T04:37:31;14.43;;;7.45;;
19903;SDS011;10114;50.970;4.962;2022-11-12T04:42:54;13.80;;;6.65;;
19903;SDS011;10114;50.970;4.962;2022-11-12T04:45:39;12.80;;;6.45;;
19903;SDS011;10114;50.970;4.962;2022-11-12T04:48:05;12.70;;;6.75;;
19903;SDS011;10114;50.970;4.962;2022-11-12T04:50:31;14.70;;;7.30;;
19903;SDS011;10114;50.970;4.962;2022-11-12T04:52:57;14.07;;;6.50;;
19903;SDS011;10114;50.970;4.962;2022-11-12T04:55:23;12.90;;;7.03;;
19903;SDS011;10114;50.970;4.962;2022-11-12T04:57:50;11.23;;;5.28;;
19903;SDS011;10114;50.970;4.962;2022-11-12T05:00:16;13.75;;;7.15;;
19903;SDS011;10114;50.970;4.962;2022-11-12T05:02:42;11.65;;;5.57;;
19903;SDS011;10114;50.970;4.962;2022-11-12T05:05:08;13.50;;;6.38;;
19903;SDS011;10114;50.970;4.962;2022-11-12T05:07:34;13.35;;;6.30;;
19903;SDS011;10114;50.970;4.962;2022-11-12T05:10:00;15.02;;;6.80;;
19903;SDS011;10114;50.970;4.962;2022-11-12T05:12:26;12.57;;;6.25;;
19903;SDS011;10114;50.970;4.962;2022-11-12T05:14:52;12.95;;;6.70;;
19903;SDS011;10114;50.970;4.962;2022-11-12T05:17:18;11.32;;;6.10;;
19903;SDS011;10114;50.970;4.962;2022-11-12T05:19:44;11.25;;;6.28;;
19903;SDS011;10114;50.970;4.962;2022-11-12T05:22:10;13.23;;;6.07;;
19903;SDS011;10114;50.970;4.962;2022-11-12T05:24:40;13.38;;;6.22;;
19903;SDS011;10114;50.970;4.962;2022-11-12T05:27:08;11.32;;;6.25;;
19903;SDS011;10114;50.970;4.962;2022-11-12T05:29:34;13.02;;;6.40;;
19903;SDS011;10114;50.970;4.962;2022-11-12T05:32:00;12.82;;;6.18;;
19903;SDS011;10114;50.970;4.962;2022-11-12T05:34:26;13.18;;;6.95;;
19903;SDS011;10114;50.970;4.962;2022-11-12T05:36:52;10.77;;;6.20;;
19903;SDS011;10114;50.970;4.962;2022-11-12T05:39:19;13.02;;;6.18;;
19903;SDS011;10114;50.970;4.962;2022-11-12T05:41:45;12.57;;;7.30;;
19903;SDS011;10114;50.970;4.962;2022-11-12T05:44:10;12.13;;;6.78;;
19903;SDS011;10114;50.970;4.962;2022-11-12T05:46:36;12.63;;;6.80;;
19903;SDS011;10114;50.970;4.962;2022-11-12T05:49:03;14.05;;;6.15;;
19903;SDS011;10114;50.970;4.962;2022-11-12T05:51:29;12.80;;;6.68;;
19903;SDS011;10114;50.970;4.962;2022-11-12T05:53:55;11.43;;;6.20;;
19903;SDS011;10114;50.970;4.962;2022-11-12T05:56:21;12.18;;;6.60;;
19903;SDS011;10114;50.970;4.962;2022-11-12T05:58:47;14.63;;;6.95;;
19903;SDS011;10114;50.970;4.962;2022-11-12T06:01:13;15.65;;;6.72;;
19903;SDS011;10114;50.970;4.962;2022-11-12T06:03:39;11.43;;;6.05;;
19903;SDS011;10114;50.970;4.962;2022-11-12T06:06:05;12.38;;;6.35;;
19903;SDS011;10114;50.970;4.962;2022-11-12T06:08:31;13.20;;;7.35;;
19903;SDS011;10114;50.970;4.962;2022-11-12T06:10:57;11.15;;;6.07;;
19903;SDS011;10114;50.970;4.962;2022-11-12T06:13:24;13.00;;;6.47;;
19903;SDS011;10114;50.970;4.962;2022-11-12T06:15:53;12.25;;;6.30;;
19903;SDS011;10114;50.970;4.962;2022-11-12T06:18:20;14.80;;;6.22;;
19903;SDS011;10114;50.970;4.962;2022-11-12T06:20:46;13.65;;;6.50;;
19903;SDS011;10114;50.970;4.962;2022-11-12T06:23:32;15.98;;;7.43;;
19903;SDS011;10114;50.970;4.962;2022-11-12T06:25:58;13.52;;;7.00;;
19903;SDS011;10114;50.970;4.962;2022-11-12T06:28:24;13.70;;;6.70;;
19903;SDS011;10114;50.970;4.962;2022-11-12T06:30:50;13.95;;;6.40;;
19903;SDS011;10114;50.970;4.962;2022-11-12T06:33:16;20.90;;;8.07;;
19903;SDS011;10114;50.970;4.962;2022-11-12T06:35:42;14.35;;;6.60;;
19903;SDS011;10114;50.970;4.962;2022-11-12T06:38:08;16.27;;;7.22;;
19903;SDS011;10114;50.970;4.962;2022-11-12T06:40:34;15.02;;;6.72;;
19903;SDS011;10114;50.970;4.962;2022-11-12T06:43:00;14.77;;;6.40;;
19903;SDS011;10114;50.970;4.962;2022-11-12T06:45:26;15.65;;;7.07;;
19903;SDS011;10114;50.970;4.962;2022-11-12T06:47:56;14.63;;;6.38;;
19903;SDS011;10114;50.970;4.962;2022-11-12T06:50:22;14.45;;;6.03;;
19903;SDS011;10114;50.970;4.962;2022-11-12T06:52:48;16.23;;;6.55;;
19903;SDS011;10114;50.970;4.962;2022-11-12T06:55:14;20.05;;;7.60;;
19903;SDS011;10114;50.970;4.962;2022-11-12T06:57:40;13.88;;;6.05;;
19903;SDS011;10114;50.970;4.962;2022-11-12T07:00:06;12.30;;;6.05;;
19903;SDS011;10114;50.970;4.962;2022-11-12T07:02:35;14.95;;;7.18;;
19903;SDS011;10114;50.970;4.962;2022-11-12T07:05:01;12.80;;;5.95;;
19903;SDS011;10114;50.970;4.962;2022-11-12T07:07:28;12.63;;;6.35;;
19903;SDS011;10114;50.970;4.962;2022-11-12T07:09:54;13.40;;;6.75;;
19903;SDS011;10114;50.970;4.962;2022-11-12T07:12:20;16.65;;;7.40;;
19903;SDS011;10114;50.970;4.962;2022-11-12T07:14:46;12.98;;;6.80;;
19903;SDS011;10114;50.970;4.962;2022-11-12T07:17:12;14.93;;;6.22;;
19903;SDS011;10114;50.970;4.962;2022-11-12T07:19:38;12.40;;;6.45;;
19903;SDS011;10114;50.970;4.962;2022-11-12T07:22:04;12.02;;;6.05;;
19903;SDS011;10114;50.970;4.962;2022-11-12T07:24:30;13.95;;;5.68;;
19903;SDS011;10114;50.970;4.962;2022-11-12T07:26:56;12.75;;;6.20;;
19903;SDS011;10114;50.970;4.962;2022-11-12T07:29:22;13.27;;;6.47;;
19903;SDS011;10114;50.970;4.962;2022-11-12T07:31:48;17.00;;;7.03;;
19903;SDS011;10114;50.970;4.962;2022-11-12T07:34:14;12.85;;;5.78;;
19903;SDS011;10114;50.970;4.962;2022-11-12T07:36:40;21.33;;;7.43;;
19903;SDS011;10114;50.970;4.962;2022-11-12T07:39:06;14.98;;;7.30;;
19903;SDS011;10114;50.970;4.962;2022-11-12T07:41:32;12.73;;;6.47;;
19903;SDS011;10114;50.970;4.962;2022-11-12T07:43:58;12.32;;;6.65;;
19903;SDS011;10114;50.970;4.962;2022-11-12T07:46:25;14.75;;;6.18;;
19903;SDS011;10114;50.970;4.962;2022-11-12T07:48:52;13.57;;;6.03;;
19903;SDS011;10114;50.970;4.962;2022-11-12T07:51:22;14.95;;;6.07;;
19903;SDS011;10114;50.970;4.962;2022-11-12T07:53:49;14.07;;;6.22;;
19903;SDS011;10114;50.970;4.962;2022-11-12T07:56:16;12.27;;;5.22;;
19903;SDS011;10114;50.970;4.962;2022-11-12T07:58:43;13.93;;;5.70;;
19903;SDS011;10114;50.970;4.962;2022-11-12T08:01:31;13.18;;;6.00;;
19903;SDS011;10114;50.970;4.962;2022-11-12T08:03:56;14.68;;;6.00;;
19903;SDS011;10114;50.970;4.962;2022-11-12T08:06:22;13.73;;;6.10;;
19903;SDS011;10114;50.970;4.962;2022-11-12T08:08:55;10.45;;;5.65;;
19903;SDS011;10114;50.970;4.962;2022-11-12T08:11:21;12.57;;;5.80;;
19903;SDS011;10114;50.970;4.962;2022-11-12T08:13:48;12.32;;;6.50;;
19903;SDS011;10114;50.970;4.962;2022-11-12T08:16:14;11.40;;;5.40;;
19903;SDS011;10114;50.970;4.962;2022-11-12T08:18:40;11.63;;;6.20;;
19903;SDS011;10114;50.970;4.962;2022-11-12T08:21:07;11.82;;;6.05;;
19903;SDS011;10114;50.970;4.962;2022-11-12T08:23:35;12.35;;;5.18;;
19903;SDS011;10114;50.970;4.962;2022-11-12T08:26:02;10.30;;;5.55;;
19903;SDS011;10114;50.970;4.962;2022-11-12T08:28:28;9.77;;;5.22;;
19903;SDS011;10114;50.970;4.962;2022-11-12T08:30:55;9.77;;;5.25;;
19903;SDS011;10114;50.970;4.962;2022-11-12T08:33:21;11.15;;;5.82;;
19903;SDS011;10114;50.970;4.962;2022-11-12T08:35:47;11.65;;;5.38;;
19903;SDS011;10114;50.970;4.962;2022-11-12T08:38:13;9.90;;;5.45;;
19903;SDS011;10114;50.970;4.962;2022-11-12T08:40:40;11.48;;;5.47;;
19903;SDS011;10114;50.970;4.962;2022-11-12T08:43:07;12.52;;;5.63;;
19903;SDS011;10114;50.970;4.962;2022-11-12T08:45:35;11.00;;;5.70;;
19903;SDS011;10114;50.970;4.962;2022-11-12T08:48:02;11.35;;;5.43;;
19903;SDS011;10114;50.970;4.962;2022-11-12T08:50:28;11.88;;;5.57;;
19903;SDS011;10114;50.970;4.962;2022-11-12T08:53:05;10.80;;;5.90;;
19903;SDS011;10114;50.970;4.962;2022-11-12T08:55:32;11.65;;;5.25;;
19903;SDS011;10114;50.970;4.962;2022-11-12T08:57:58;10.77;;;5.90;;
19903;SDS011;10114;50.970;4.962;2022-11-12T09:00:32;11.77;;;6.15;;
19903;SDS011;10114;50.970;4.962;2022-11-12T09:03:01;10.15;;;5.88;;
19903;SDS011;10114;50.970;4.962;2022-11-12T09:05:27;13.40;;;6.40;;
19903;SDS011;10114;50.970;4.962;2022-11-12T09:07:57;12.32;;;5.95;;
19903;SDS011;10114;50.970;4.962;2022-11-12T09:10:23;11.15;;;5.65;;
19903;SDS011;10114;50.970;4.962;2022-11-12T09:12:49;10.13;;;5.18;;
19903;SDS011;10114;50.970;4.962;2022-11-12T09:15:16;11.73;;;5.45;;
19903;SDS011;10114;50.970;4.962;2022-11-12T09:17:42;10.75;;;5.10;;
19903;SDS011;10114;50.970;4.962;2022-11-12T09:20:08;9.73;;;5.88;;
19903;SDS011;10114;50.970;4.962;2022-11-12T09:22:34;9.63;;;5.50;;
19903;SDS011;10114;50.970;4.962;2022-11-12T09:25:00;16.85;;;5.10;;
19903;SDS011;10114;50.970;4.962;2022-11-12T09:27:26;10.88;;;5.35;;
19903;SDS011;10114;50.970;4.962;2022-11-12T09:29:52;12.63;;;5.53;;
19903;SDS011;10114;50.970;4.962;2022-11-12T09:32:18;10.43;;;5.25;;
19903;SDS011;10114;50.970;4.962;2022-11-12T09:34:44;11.45;;;5.75;;
19903;SDS011;10114;50.970;4.962;2022-11-12T09:37:10;11.23;;;4.90;;
19903;SDS011;10114;50.970;4.962;2022-11-12T09:39:36;9.68;;;4.65;;
19903;SDS011;10114;50.970;4.962;2022-11-12T09:42:06;8.38;;;4.68;;
19903;SDS011;10114;50.970;4.962;2022-11-12T09:44:33;8.82;;;4.72;;
19903;SDS011;10114;50.970;4.962;2022-11-12T09:47:01;10.88;;;5.10;;
19903;SDS011;10114;50.970;4.962;2022-11-12T09:49:35;13.00;;;5.45;;
19903;SDS011;10114;50.970;4.962;2022-11-12T09:52:03;9.93;;;4.80;;
19903;SDS011;10114;50.970;4.962;2022-11-12T09:54:31;10.55;;;5.10;;
19903;SDS011;10114;50.970;4.962;2022-11-12T09:56:57;9.23;;;4.47;;
19903;SDS011;10114;50.970;4.962;2022-11-12T09:59:33;9.50;;;4.72;;
19903;SDS011;10114;50.970;4.962;2022-11-12T10:07:25;9.00;;;4.80;;
19903;SDS011;10114;50.970;4.962;2022-11-12T10:09:58;8.18;;;4.80;;
19903;SDS011;10114;50.970;4.962;2022-11-12T10:17:51;8.13;;;4.50;;
19903;SDS011;10114;50.970;4.962;2022-11-12T10:20:22;11.68;;;4.82;;
19903;SDS011;10114;50.970;4.962;2022-11-12T10:25:22;7.60;;;4.07;;
19903;SDS011;10114;50.970;4.962;2022-11-12T10:27:49;6.72;;;3.90;;
19903;SDS011;10114;50.970;4.962;2022-11-12T10:30:17;9.18;;;4.72;;
19903;SDS011;10114;50.970;4.962;2022-11-12T10:32:44;7.97;;;3.92;;
19903;SDS011;10114;50.970;4.962;2022-11-12T10:35:15;7.93;;;4.53;;
19903;SDS011;10114;50.970;4.962;2022-11-12T10:37:52;9.23;;;4.20;;
19903;SDS011;10114;50.970;4.962;2022-11-12T10:45:26;9.73;;;4.68;;
19903;SDS011;10114;50.970;4.962;2022-11-12T10:47:52;8.38;;;4.28;;
19903;SDS011;10114;50.970;4.962;2022-11-12T10:50:23;7.93;;;4.30;;
19903;SDS011;10114;50.970;4.962;2022-11-12T10:53:03;8.90;;;4.32;;
19903;SDS011;10114;50.970;4.962;2022-11-12T10:55:31;10.52;;;4.10;;
19903;SDS011;10114;50.970;4.962;2022-11-12T10:58:05;7.78;;;3.85;;
19903;SDS011;10114;50.970;4.962;2022-11-12T11:00:31;8.18;;;3.83;;
19903;SDS011;10114;50.970;4.962;2022-11-12T11:02:58;6.78;;;3.50;;
19903;SDS011;10114;50.970;4.962;2022-11-12T11:07:51;6.55;;;2.95;;
19903;SDS011;10114;50.970;4.962;2022-11-12T11:10:35;7.63;;;2.90;;
19903;SDS011;10114;50.970;4.962;2022-11-12T11:13:08;4.15;;;2.15;;
19903;SDS011;10114;50.970;4.962;2022-11-12T11:15:34;5.97;;;2.63;;
19903;SDS011;10114;50.970;4.962;2022-11-12T11:18:00;6.60;;;2.80;;
19903;SDS011;10114;50.970;4.962;2022-11-12T11:22:59;5.75;;;2.78;;
19903;SDS011;10114;50.970;4.962;2022-11-12T11:25:28;7.63;;;2.95;;
19903;SDS011;10114;50.970;4.962;2022-11-12T11:30:20;4.70;;;2.42;;
19903;SDS011;10114;50.970;4.962;2022-11-12T11:35:28;5.38;;;2.88;;
19903;SDS011;10114;50.970;4.962;2022-11-12T11:40:31;5.50;;;2.75;;
19903;SDS011;10114;50.970;4.962;2022-11-12T11:45:50;6.68;;;3.10;;
19903;SDS011;10114;50.970;4.962;2022-11-12T11:53:33;7.05;;;3.53;;
19903;SDS011;10114;50.970;4.962;2022-11-12T11:56:13;8.15;;;3.85;;
19903;SDS011;10114;50.970;4.962;2022-11-12T12:06:25;6.05;;;3.38;;
19903;SDS011;10114;50.970;4.962;2022-11-12T12:08:55;8.02;;;3.35;;
19903;SDS011;10114;50.970;4.962;2022-11-12T12:16:29;9.07;;;3.53;;
19903;SDS011;10114;50.970;4.962;2022-11-12T12:21:28;7.05;;;3.45;;
19903;SDS011;10114;50.970;4.962;2022-11-12T12:24:03;10.15;;;4.38;;
19903;SDS011;10114;50.970;4.962;2022-11-12T12:29:13;7.13;;;3.60;;
19903;SDS011;10114;50.970;4.962;2022-11-12T12:31:45;5.82;;;3.13;;
19903;SDS011;10114;50.970;4.962;2022-11-12T12:37:16;6.82;;;2.85;;
19903;SDS011;10114;50.970;4.962;2022-11-12T12:42:50;7.95;;;3.85;;
19903;SDS011;10114;50.970;4.962;2022-11-12T12:47:50;7.80;;;3.22;;
19903;SDS011;10114;50.970;4.962;2022-11-12T12:50:17;8.57;;;3.55;;
19903;SDS011;10114;50.970;4.962;2022-11-12T12:55:45;8.77;;;4.20;;
19903;SDS011;10114;50.970;4.962;2022-11-12T12:58:14;6.78;;;3.47;;
19903;SDS011;10114;50.970;4.962;2022-11-12T13:00:45;9.07;;;3.95;;
19903;SDS011;10114;50.970;4.962;2022-11-12T13:03:11;8.23;;;3.33;;
19903;SDS011;10114;50.970;4.962;2022-11-12T13:05:37;9.45;;;3.72;;
19903;SDS011;10114;50.970;4.962;2022-11-12T13:08:08;9.25;;;3.88;;
19903;SDS011;10114;50.970;4.962;2022-11-12T13:15:47;8.63;;;4.03;;
19903;SDS011;10114;50.970;4.962;2022-11-12T13:23:47;7.60;;;3.78;;
19903;SDS011;10114;50.970;4.962;2022-11-12T13:26:45;8.05;;;3.70;;
19903;SDS011;10114;50.970;4.962;2022-11-12T13:29:37;8.85;;;4.20;;
19903;SDS011;10114;50.970;4.962;2022-11-12T13:34:48;8.60;;;3.40;;
19903;SDS011;10114;50.970;4.962;2022-11-12T13:37:19;9.80;;;3.67;;
19903;SDS011;10114;50.970;4.962;2022-11-12T13:39:45;6.78;;;3.83;;
19903;SDS011;10114;50.970;4.962;2022-11-12T13:42:12;7.03;;;3.38;;
19903;SDS011;10114;50.970;4.962;2022-11-12T13:44:59;8.93;;;3.95;;
19903;SDS011;10114;50.970;4.962;2022-11-12T13:47:25;9.20;;;4.03;;
19903;SDS011;10114;50.970;4.962;2022-11-12T13:49:53;7.35;;;4.15;;
19903;SDS011;10114;50.970;4.962;2022-11-12T13:52:20;7.53;;;3.40;;
19903;SDS011;10114;50.970;4.962;2022-11-12T13:54:46;7.13;;;3.92;;
19903;SDS011;10114;50.970;4.962;2022-11-12T13:57:26;7.65;;;3.92;;
19903;SDS011;10114;50.970;4.962;2022-11-12T14:02:37;8.32;;;3.65;;
19903;SDS011;10114;50.970;4.962;2022-11-12T14:05:10;9.57;;;4.03;;
19903;SDS011;10114;50.970;4.962;2022-11-12T14:08:02;8.25;;;3.67;;
19903;SDS011;10114;50.970;4.962;2022-11-12T14:20:36;8.15;;;3.70;;
19903;SDS011;10114;50.970;4.962;2022-11-12T14:23:04;11.23;;;4.32;;
19903;SDS011;10114;50.970;4.962;2022-11-12T14:25:33;9.27;;;3.97;;
19903;SDS011;10114;50.970;4.962;2022-11-12T14:27:59;8.35;;;4.05;;
19903;SDS011;10114;50.970;4.962;2022-11-12T14:30:26;7.45;;;3.50;;
19903;SDS011;10114;50.970;4.962;2022-11-12T14:32:59;11.23;;;3.63;;
19903;SDS011;10114;50.970;4.962;2022-11-12T14:37:52;9.50;;;3.55;;
19903;SDS011;10114;50.970;4.962;2022-11-12T14:40:20;7.35;;;3.80;;
19903;SDS011;10114;50.970;4.962;2022-11-12T14:42:47;9.90;;;4.30;;
19903;SDS011;10114;50.970;4.962;2022-11-12T14:45:14;8.55;;;4.05;;
19903;SDS011;10114;50.970;4.962;2022-11-12T14:47:41;7.28;;;3.78;;
19903;SDS011;10114;50.970;4.962;2022-11-12T14:50:14;9.38;;;4.32;;
19903;SDS011;10114;50.970;4.962;2022-11-12T14:52:43;10.30;;;4.38;;
19903;SDS011;10114;50.970;4.962;2022-11-12T14:55:12;10.80;;;4.05;;
19903;SDS011;10114;50.970;4.962;2022-11-12T14:57:39;9.25;;;3.92;;
19903;SDS011;10114;50.970;4.962;2022-11-12T15:00:19;7.95;;;4.40;;
19903;SDS011;10114;50.970;4.962;2022-11-12T15:02:46;7.80;;;4.13;;
19903;SDS011;10114;50.970;4.962;2022-11-12T15:05:14;7.22;;;3.75;;
19903;SDS011;10114;50.970;4.962;2022-11-12T15:07:51;8.15;;;4.00;;
19903;SDS011;10114;50.970;4.962;2022-11-12T15:13:03;8.48;;;3.63;;
19903;SDS011;10114;50.970;4.962;2022-11-12T15:15:30;7.93;;;3.97;;
19903;SDS011;10114;50.970;4.962;2022-11-12T15:17:58;9.35;;;4.03;;
19903;SDS011;10114;50.970;4.962;2022-11-12T15:20:25;10.27;;;4.30;;
19903;SDS011;10114;50.970;4.962;2022-11-12T15:22:52;10.55;;;4.60;;
19903;SDS011;10114;50.970;4.962;2022-11-12T15:25:23;7.90;;;4.60;;
19903;SDS011;10114;50.970;4.962;2022-11-12T15:27:50;7.32;;;3.58;;
19903;SDS011;10114;50.970;4.962;2022-11-12T15:32:47;8.30;;;3.38;;
19903;SDS011;10114;50.970;4.962;2022-11-12T15:37:49;6.22;;;3.40;;
19903;SDS011;10114;50.970;4.962;2022-11-12T15:40:16;7.65;;;4.53;;
19903;SDS011;10114;50.970;4.962;2022-11-12T15:42:42;7.93;;;3.75;;
19903;SDS011;10114;50.970;4.962;2022-11-12T15:45:16;8.48;;;3.40;;
19903;SDS011;10114;50.970;4.962;2022-11-12T15:47:42;6.90;;;3.20;;
19903;SDS011;10114;50.970;4.962;2022-11-12T15:52:38;6.95;;;3.28;;
19903;SDS011;10114;50.970;4.962;2022-11-12T15:55:04;7.32;;;3.92;;
19903;SDS011;10114;50.970;4.962;2022-11-12T15:57:31;8.07;;;3.72;;
19903;SDS011;10114;50.970;4.962;2022-11-12T16:02:24;6.35;;;3.28;;
19903;SDS011;10114;50.970;4.962;2022-11-12T16:04:50;6.03;;;4.00;;
19903;SDS011;10114;50.970;4.962;2022-11-12T16:07:16;7.55;;;3.08;;
19903;SDS011;10114;50.970;4.962;2022-11-12T16:09:42;5.38;;;3.08;;
19903;SDS011;10114;50.970;4.962;2022-11-12T16:12:09;7.57;;;3.70;;
19903;SDS011;10114;50.970;4.962;2022-11-12T16:14:36;8.40;;;3.83;;
19903;SDS011;10114;50.970;4.962;2022-11-12T16:17:02;8.15;;;3.45;;
19903;SDS011;10114;50.970;4.962;2022-11-12T16:19:28;7.22;;;3.58;;
19903;SDS011;10114;50.970;4.962;2022-11-12T16:21:58;8.63;;;4.18;;
19903;SDS011;10114;50.970;4.962;2022-11-12T16:24:24;10.90;;;4.00;;
19903;SDS011;10114;50.970;4.962;2022-11-12T16:26:51;7.35;;;3.45;;
19903;SDS011;10114;50.970;4.962;2022-11-12T16:29:17;7.28;;;3.30;;
19903;SDS011;10114;50.970;4.962;2022-11-12T16:31:43;7.97;;;4.22;;
19903;SDS011;10114;50.970;4.962;2022-11-12T16:34:09;9.00;;;3.95;;
19903;SDS011;10114;50.970;4.962;2022-11-12T16:36:37;11.65;;;4.70;;
19903;SDS011;10114;50.970;4.962;2022-11-12T16:39:03;12.23;;;5.82;;